LMG400 LEZL-DNAA
Flight info
| Callsign | LMG400 |
|---|---|
| Flight time | N/A |
| Altitude | 31000 |
| Route | SVL M744 MGA L195 LIGUM/N0400F330 UB798 UA604 KAN/N0400F340 UR778 KUA UV456 OXORU |
| Aircraft | A400/M-SDE2E3FGRY/LB1D1G1 |
Departure
| Time | 2026-04-22 10:10 |
|---|---|
| Airport | Seville Airport (LEZL) |
Arrival
| Time | N/A |
|---|---|
| Airport | Nnamdi Azikiwe International Airport (DNAA) |
| Time | Latitude | Longitude | Altitude | Speed | Heading |
|---|---|---|---|---|---|
| 2026-04-22 09:26 | 37.41342 | -5.88406 | 115 ft | 0 kts | 358° |
| 2026-04-22 09:58 | 37.41336 | -5.88406 | 115 ft | 0 kts | 358° |
| 2026-04-22 10:03 | 37.41337 | -5.88406 | 115 ft | 0 kts | 358° |
| 2026-04-22 10:03 | 37.41334 | -5.88406 | 112 ft | 2 kts | 358° |
| 2026-04-22 10:03 | 37.41318 | -5.88405 | 113 ft | 2 kts | 358° |
| 2026-04-22 10:04 | 37.41301 | -5.88405 | 110 ft | 2 kts | 358° |
| 2026-04-22 10:04 | 37.41293 | -5.88404 | 109 ft | 0 kts | 358° |
| 2026-04-22 10:06 | 37.41303 | -5.88403 | 110 ft | 4 kts | 7° |
| 2026-04-22 10:07 | 37.41337 | -5.88375 | 106 ft | 11 kts | 51° |
| 2026-04-22 10:07 | 37.41324 | -5.88254 | 115 ft | 14 kts | 111° |
| 2026-04-22 10:07 | 37.41296 | -5.88147 | 114 ft | 12 kts | 95° |
| 2026-04-22 10:07 | 37.41294 | -5.88049 | 115 ft | 12 kts | 90° |
| 2026-04-22 10:08 | 37.41301 | -5.87903 | 119 ft | 21 kts | 86° |
| 2026-04-22 10:08 | 37.41321 | -5.87694 | 119 ft | 24 kts | 63° |
| 2026-04-22 10:08 | 37.41435 | -5.87609 | 124 ft | 16 kts | 34° |
| 2026-04-22 10:08 | 37.41519 | -5.87535 | 126 ft | 14 kts | 38° |
| 2026-04-22 10:09 | 37.41594 | -5.87459 | 124 ft | 14 kts | 39° |
| 2026-04-22 10:09 | 37.41668 | -5.87392 | 126 ft | 13 kts | 29° |
| 2026-04-22 10:09 | 37.41756 | -5.87383 | 126 ft | 15 kts | 339° |
| 2026-04-22 10:09 | 37.41802 | -5.87529 | 127 ft | 33 kts | 272° |
| 2026-04-22 10:10 | 37.41799 | -5.88172 | 124 ft | 114 kts | 270° |
| 2026-04-22 10:10 | 37.41778 | -5.89477 | 137 ft | 176 kts | 269° |
| 2026-04-22 10:10 | 37.41799 | -5.91101 | 545 ft | 193 kts | 271° |
| 2026-04-22 10:10 | 37.41914 | -5.92755 | 1417 ft | 186 kts | 281° |
| 2026-04-22 10:11 | 37.42194 | -5.94355 | 2212 ft | 194 kts | 282° |
| 2026-04-22 10:11 | 37.42525 | -5.96125 | 2585 ft | 222 kts | 282° |
| 2026-04-22 10:11 | 37.42889 | -5.98147 | 2945 ft | 249 kts | 281° |
| 2026-04-22 10:11 | 37.43268 | -6.00326 | 3563 ft | 259 kts | 281° |
| 2026-04-22 10:12 | 37.43644 | -6.02552 | 4340 ft | 261 kts | 278° |
| 2026-04-22 10:12 | 37.43739 | -6.04837 | 5102 ft | 262 kts | 262° |
| 2026-04-22 10:12 | 37.43228 | -6.06997 | 5985 ft | 255 kts | 239° |
| 2026-04-22 10:12 | 37.42093 | -6.08633 | 6908 ft | 247 kts | 215° |
| 2026-04-22 10:13 | 37.40505 | -6.09462 | 7656 ft | 252 kts | 190° |
| 2026-04-22 10:13 | 37.38735 | -6.09248 | 8361 ft | 264 kts | 164° |
| 2026-04-22 10:13 | 37.37187 | -6.07919 | 9079 ft | 281 kts | 136° |
| 2026-04-22 10:13 | 37.36096 | -6.05899 | 9824 ft | 290 kts | 124° |
| 2026-04-22 10:14 | 37.35247 | -6.03596 | 10381 ft | 301 kts | 117° |
| 2026-04-22 10:14 | 37.34501 | -6.01073 | 10823 ft | 312 kts | 115° |
| 2026-04-22 10:14 | 37.33796 | -5.98472 | 11377 ft | 317 kts | 114° |
| 2026-04-22 10:14 | 37.33073 | -5.95826 | 11982 ft | 320 kts | 114° |
| 2026-04-22 10:15 | 37.32318 | -5.93181 | 12609 ft | 323 kts | 115° |
| 2026-04-22 10:15 | 37.31526 | -5.90529 | 13219 ft | 325 kts | 116° |
| 2026-04-22 10:15 | 37.30702 | -5.87865 | 13843 ft | 328 kts | 116° |
| 2026-04-22 10:15 | 37.29858 | -5.85191 | 14383 ft | 331 kts | 116° |
| 2026-04-22 10:16 | 37.28994 | -5.82486 | 14905 ft | 335 kts | 116° |
| 2026-04-22 10:16 | 37.28118 | -5.79755 | 15440 ft | 339 kts | 116° |
| 2026-04-22 10:16 | 37.27243 | -5.77028 | 15973 ft | 342 kts | 116° |
| 2026-04-22 10:16 | 37.26348 | -5.74235 | 16505 ft | 346 kts | 116° |
| 2026-04-22 10:17 | 37.25443 | -5.71412 | 17046 ft | 350 kts | 116° |
| 2026-04-22 10:17 | 37.24531 | -5.68564 | 17598 ft | 354 kts | 116° |
| 2026-04-22 10:17 | 37.23610 | -5.65687 | 18131 ft | 357 kts | 115° |
| 2026-04-22 10:17 | 37.22675 | -5.62771 | 18621 ft | 361 kts | 115° |
| 2026-04-22 10:18 | 37.21732 | -5.59830 | 19106 ft | 364 kts | 115° |
| 2026-04-22 10:18 | 37.20782 | -5.56872 | 19575 ft | 368 kts | 115° |
| 2026-04-22 10:18 | 37.19820 | -5.53876 | 20053 ft | 371 kts | 115° |
| 2026-04-22 10:18 | 37.19178 | -5.51881 | 20377 ft | 373 kts | 115° |
| 2026-04-22 10:19 | 37.17881 | -5.47856 | 21009 ft | 377 kts | 115° |
| 2026-04-22 10:19 | 37.16894 | -5.44794 | 21476 ft | 380 kts | 115° |
| 2026-04-22 10:19 | 37.15896 | -5.41704 | 21951 ft | 384 kts | 115° |
| 2026-04-22 10:19 | 37.14890 | -5.38589 | 22432 ft | 387 kts | 115° |
| 2026-04-22 10:20 | 37.14208 | -5.36482 | 22746 ft | 389 kts | 114° |
| 2026-04-22 10:20 | 37.13199 | -5.33366 | 23186 ft | 392 kts | 114° |
| 2026-04-22 10:20 | 37.11818 | -5.29106 | 23734 ft | 396 kts | 114° |
| 2026-04-22 10:20 | 37.10775 | -5.25894 | 24000 ft | 402 kts | 114° |
| 2026-04-22 10:21 | 37.10070 | -5.23725 | 24096 ft | 407 kts | 114° |
| 2026-04-22 10:21 | 37.08994 | -5.20422 | 24220 ft | 414 kts | 114° |
| 2026-04-22 10:21 | 37.07892 | -5.17039 | 24353 ft | 420 kts | 114° |
| 2026-04-22 10:21 | 37.06784 | -5.13639 | 24565 ft | 424 kts | 114° |
| 2026-04-22 10:22 | 37.05676 | -5.10238 | 24969 ft | 419 kts | 114° |
| 2026-04-22 10:22 | 37.04584 | -5.06887 | 25559 ft | 412 kts | 114° |
| 2026-04-22 10:22 | 37.03503 | -5.03577 | 25957 ft | 411 kts | 114° |
| 2026-04-22 10:22 | 37.02429 | -5.00297 | 26285 ft | 412 kts | 114° |
| 2026-04-22 10:23 | 37.01337 | -4.96971 | 26614 ft | 414 kts | 114° |
| 2026-04-22 10:23 | 37.00239 | -4.93629 | 26892 ft | 415 kts | 114° |
| 2026-04-22 10:23 | 36.99134 | -4.90272 | 27170 ft | 417 kts | 114° |
| 2026-04-22 10:23 | 36.98027 | -4.86908 | 27440 ft | 419 kts | 114° |
| 2026-04-22 10:24 | 36.96915 | -4.83534 | 27707 ft | 421 kts | 114° |
| 2026-04-22 10:24 | 36.95795 | -4.80137 | 27964 ft | 422 kts | 114° |
| 2026-04-22 10:24 | 36.94686 | -4.76780 | 28213 ft | 424 kts | 114° |
| 2026-04-22 10:24 | 36.93557 | -4.73364 | 28454 ft | 425 kts | 115° |
| 2026-04-22 10:25 | 36.92425 | -4.69945 | 28683 ft | 427 kts | 115° |
| 2026-04-22 10:25 | 36.91285 | -4.66502 | 28899 ft | 429 kts | 115° |
| 2026-04-22 10:25 | 36.90139 | -4.63050 | 29112 ft | 430 kts | 114° |
| 2026-04-22 10:25 | 36.88992 | -4.59595 | 29315 ft | 432 kts | 115° |
| 2026-04-22 10:26 | 36.87836 | -4.56117 | 29540 ft | 433 kts | 115° |
| 2026-04-22 10:26 | 36.86684 | -4.52655 | 29772 ft | 433 kts | 115° |
| 2026-04-22 10:26 | 36.85525 | -4.49177 | 30051 ft | 432 kts | 115° |
| 2026-04-22 10:26 | 36.84368 | -4.45708 | 30286 ft | 432 kts | 115° |
| 2026-04-22 10:27 | 36.83211 | -4.42246 | 30519 ft | 431 kts | 115° |
| 2026-04-22 10:27 | 36.82056 | -4.38792 | 30771 ft | 431 kts | 115° |
| 2026-04-22 10:27 | 36.80856 | -4.35370 | 30964 ft | 429 kts | 117° |
| 2026-04-22 10:27 | 36.79588 | -4.32057 | 30987 ft | 430 kts | 118° |
| 2026-04-22 10:28 | 36.76893 | -4.25397 | 30990 ft | 429 kts | 120° |
| 2026-04-22 10:28 | 36.74203 | -4.18814 | 30992 ft | 429 kts | 120° |
| 2026-04-22 10:29 | 36.71510 | -4.12166 | 30990 ft | 429 kts | 119° |
| 2026-04-22 10:29 | 36.68830 | -4.05512 | 30991 ft | 429 kts | 119° |
| 2026-04-22 10:30 | 36.66150 | -3.98863 | 30994 ft | 429 kts | 119° |
| 2026-04-22 10:30 | 36.63471 | -3.92230 | 30996 ft | 429 kts | 119° |
| 2026-04-22 10:31 | 36.60779 | -3.85582 | 30995 ft | 433 kts | 119° |
| 2026-04-22 10:31 | 36.58057 | -3.78876 | 30997 ft | 434 kts | 119° |
| 2026-04-22 10:32 | 36.55353 | -3.72226 | 30994 ft | 434 kts | 119° |
| 2026-04-22 10:32 | 36.52614 | -3.65503 | 31000 ft | 434 kts | 120° |
| 2026-04-22 10:33 | 36.49877 | -3.58800 | 31002 ft | 434 kts | 120° |
| 2026-04-22 10:33 | 36.47141 | -3.52113 | 31004 ft | 434 kts | 120° |
| 2026-04-22 10:34 | 36.44397 | -3.45424 | 30999 ft | 434 kts | 120° |
| 2026-04-22 10:34 | 36.41652 | -3.38743 | 31004 ft | 434 kts | 120° |
| 2026-04-22 10:35 | 36.38902 | -3.32064 | 31005 ft | 434 kts | 120° |
| 2026-04-22 10:35 | 36.36147 | -3.25387 | 31006 ft | 434 kts | 120° |
| 2026-04-22 10:36 | 36.33387 | -3.18712 | 31009 ft | 434 kts | 120° |
| 2026-04-22 10:36 | 36.30647 | -3.12100 | 31007 ft | 434 kts | 120° |
| 2026-04-22 10:37 | 36.26503 | -3.02122 | 31010 ft | 434 kts | 120° |
| 2026-04-22 10:38 | 36.23732 | -2.95470 | 31013 ft | 434 kts | 120° |
| 2026-04-22 10:38 | 36.20962 | -2.88831 | 31013 ft | 434 kts | 120° |
| 2026-04-22 10:39 | 36.18189 | -2.82201 | 31010 ft | 434 kts | 120° |
| 2026-04-22 10:39 | 36.15444 | -2.75649 | 31011 ft | 434 kts | 120° |
| 2026-04-22 10:40 | 36.12673 | -2.69050 | 31010 ft | 434 kts | 120° |
| 2026-04-22 10:40 | 36.09891 | -2.62439 | 31012 ft | 434 kts | 120° |
| 2026-04-22 10:41 | 36.07100 | -2.55819 | 31014 ft | 433 kts | 120° |
| 2026-04-22 10:41 | 36.04341 | -2.49286 | 31012 ft | 434 kts | 120° |
| 2026-04-22 10:42 | 36.01544 | -2.42678 | 31014 ft | 434 kts | 120° |
| 2026-04-22 10:42 | 35.98782 | -2.36167 | 31016 ft | 434 kts | 120° |
| 2026-04-22 10:43 | 35.95976 | -2.29563 | 31012 ft | 434 kts | 120° |
| 2026-04-22 10:43 | 35.93163 | -2.22956 | 31011 ft | 434 kts | 120° |
| 2026-04-22 10:44 | 35.90347 | -2.16357 | 31011 ft | 434 kts | 120° |
| 2026-04-22 10:44 | 35.87534 | -2.09776 | 31013 ft | 434 kts | 120° |
| 2026-04-22 10:45 | 35.84709 | -2.03181 | 31018 ft | 434 kts | 120° |
| 2026-04-22 10:45 | 35.81855 | -1.96628 | 31018 ft | 434 kts | 121° |
| 2026-04-22 10:46 | 35.78925 | -1.90123 | 31017 ft | 434 kts | 122° |
| 2026-04-22 10:46 | 35.76002 | -1.83680 | 31021 ft | 434 kts | 122° |
| 2026-04-22 10:47 | 35.73064 | -1.77196 | 31021 ft | 433 kts | 122° |
| 2026-04-22 10:47 | 35.70125 | -1.70709 | 31022 ft | 433 kts | 122° |
| 2026-04-22 10:48 | 35.67185 | -1.64228 | 31024 ft | 433 kts | 122° |
| 2026-04-22 10:48 | 35.64262 | -1.57797 | 31025 ft | 433 kts | 122° |
| 2026-04-22 10:49 | 35.61320 | -1.51334 | 31026 ft | 433 kts | 122° |
| 2026-04-22 10:49 | 35.58379 | -1.44889 | 31024 ft | 433 kts | 122° |
| 2026-04-22 10:50 | 35.55431 | -1.38440 | 31025 ft | 432 kts | 122° |
| 2026-04-22 10:50 | 35.52479 | -1.31996 | 31025 ft | 432 kts | 122° |
| 2026-04-22 10:51 | 35.49527 | -1.25561 | 31026 ft | 432 kts | 122° |
| 2026-04-22 10:51 | 35.46593 | -1.19179 | 31027 ft | 432 kts | 122° |
| 2026-04-22 10:52 | 35.43638 | -1.12764 | 31026 ft | 432 kts | 122° |
| 2026-04-22 10:52 | 35.40673 | -1.06339 | 31028 ft | 432 kts | 122° |
| 2026-04-22 10:53 | 35.37711 | -0.99934 | 31025 ft | 432 kts | 123° |
| 2026-04-22 10:53 | 35.34108 | -0.94128 | 31023 ft | 426 kts | 135° |
| 2026-04-22 10:54 | 35.30099 | -0.88832 | 31018 ft | 426 kts | 137° |
| 2026-04-22 10:54 | 35.25994 | -0.83617 | 31018 ft | 426 kts | 137° |
| 2026-04-22 10:55 | 35.21873 | -0.78411 | 31016 ft | 425 kts | 137° |
| 2026-04-22 10:55 | 35.17757 | -0.73208 | 31015 ft | 425 kts | 137° |
| 2026-04-22 10:56 | 35.13646 | -0.68004 | 31006 ft | 425 kts | 137° |
| 2026-04-22 10:56 | 35.09537 | -0.62806 | 31002 ft | 425 kts | 137° |
| 2026-04-22 10:57 | 35.05422 | -0.57607 | 31016 ft | 425 kts | 137° |
| 2026-04-22 10:57 | 35.01333 | -0.52451 | 31000 ft | 425 kts | 137° |
| 2026-04-22 10:58 | 34.97214 | -0.47266 | 30999 ft | 425 kts | 137° |
| 2026-04-22 10:58 | 34.93097 | -0.42090 | 31001 ft | 425 kts | 137° |
| 2026-04-22 10:59 | 34.88986 | -0.36930 | 30996 ft | 425 kts | 137° |
| 2026-04-22 10:59 | 34.84864 | -0.31765 | 30996 ft | 425 kts | 138° |
| 2026-04-22 11:00 | 34.80769 | -0.26641 | 31006 ft | 425 kts | 138° |
| 2026-04-22 11:00 | 34.76643 | -0.21486 | 30999 ft | 425 kts | 138° |
| 2026-04-22 11:01 | 34.72515 | -0.16336 | 31002 ft | 425 kts | 138° |
| 2026-04-22 11:01 | 34.68385 | -0.11191 | 31003 ft | 425 kts | 138° |
| 2026-04-22 11:02 | 34.64252 | -0.06052 | 31007 ft | 425 kts | 138° |
| 2026-04-22 11:02 | 34.60143 | -0.00950 | 31009 ft | 425 kts | 138° |
| 2026-04-22 11:03 | 34.55985 | 0.04205 | 31008 ft | 427 kts | 136° |
| 2026-04-22 11:03 | 34.51822 | 0.09360 | 31008 ft | 428 kts | 136° |
| 2026-04-22 11:04 | 34.47675 | 0.14487 | 31006 ft | 427 kts | 136° |
| 2026-04-22 11:04 | 34.43508 | 0.19631 | 31009 ft | 427 kts | 136° |
| 2026-04-22 11:05 | 34.39337 | 0.24772 | 31012 ft | 427 kts | 136° |
| 2026-04-22 11:05 | 34.35170 | 0.29900 | 31010 ft | 427 kts | 137° |
| 2026-04-22 11:06 | 34.31005 | 0.35018 | 31010 ft | 427 kts | 137° |
| 2026-04-22 11:06 | 34.26836 | 0.40133 | 31009 ft | 426 kts | 137° |
| 2026-04-22 11:07 | 34.22696 | 0.45204 | 31011 ft | 427 kts | 137° |
| 2026-04-22 11:07 | 34.18525 | 0.50306 | 31010 ft | 426 kts | 137° |
| 2026-04-22 11:08 | 34.14351 | 0.55404 | 31006 ft | 426 kts | 137° |
| 2026-04-22 11:08 | 34.10881 | 0.59637 | 31008 ft | 426 kts | 137° |
| 2026-04-22 11:09 | 34.06706 | 0.64722 | 31006 ft | 426 kts | 137° |
| 2026-04-22 11:09 | 34.02533 | 0.69797 | 31013 ft | 426 kts | 137° |
| 2026-04-22 11:10 | 33.98357 | 0.74869 | 31011 ft | 426 kts | 137° |
| 2026-04-22 11:10 | 33.94178 | 0.79937 | 31029 ft | 425 kts | 137° |
| 2026-04-22 11:11 | 33.90008 | 0.84986 | 31053 ft | 425 kts | 138° |
| 2026-04-22 11:11 | 33.85834 | 0.90033 | 31074 ft | 425 kts | 137° |
| 2026-04-22 11:12 | 33.81658 | 0.95074 | 31102 ft | 425 kts | 138° |
| 2026-04-22 11:12 | 33.77511 | 1.00074 | 31126 ft | 424 kts | 138° |
| 2026-04-22 11:13 | 33.73343 | 1.05088 | 31129 ft | 424 kts | 139° |
| 2026-04-22 11:13 | 33.68629 | 1.09208 | 31128 ft | 417 kts | 154° |
| 2026-04-22 11:14 | 33.63490 | 1.12425 | 31127 ft | 416 kts | 157° |
| 2026-04-22 11:14 | 33.58271 | 1.15457 | 31103 ft | 416 kts | 158° |
| 2026-04-22 11:15 | 33.53057 | 1.18465 | 31078 ft | 416 kts | 158° |
| 2026-04-22 11:15 | 33.47873 | 1.21480 | 31052 ft | 416 kts | 158° |
| 2026-04-22 11:16 | 33.42665 | 1.24520 | 31023 ft | 416 kts | 157° |
| 2026-04-22 11:16 | 33.37452 | 1.27564 | 31007 ft | 416 kts | 158° |
| 2026-04-22 11:17 | 33.32292 | 1.30573 | 31001 ft | 416 kts | 157° |
| 2026-04-22 11:17 | 33.27074 | 1.33610 | 30999 ft | 416 kts | 158° |
| 2026-04-22 11:18 | 33.21869 | 1.36634 | 30998 ft | 416 kts | 158° |
| 2026-04-22 11:18 | 33.16684 | 1.39643 | 30991 ft | 417 kts | 158° |
| 2026-04-22 11:19 | 33.11466 | 1.42668 | 30991 ft | 416 kts | 158° |
| 2026-04-22 11:19 | 33.06260 | 1.45682 | 30991 ft | 416 kts | 158° |
| 2026-04-22 11:20 | 33.01047 | 1.48696 | 30986 ft | 416 kts | 158° |
| 2026-04-22 11:20 | 32.95831 | 1.51707 | 30987 ft | 416 kts | 158° |
| 2026-04-22 11:21 | 32.90617 | 1.54713 | 30985 ft | 416 kts | 158° |
| 2026-04-22 11:21 | 32.85404 | 1.57715 | 30987 ft | 416 kts | 158° |
| 2026-04-22 11:22 | 32.80223 | 1.60695 | 30992 ft | 416 kts | 158° |
| 2026-04-22 11:22 | 32.75005 | 1.63691 | 30987 ft | 416 kts | 157° |
| 2026-04-22 11:23 | 32.69783 | 1.66686 | 30984 ft | 416 kts | 157° |
| 2026-04-22 11:23 | 32.64564 | 1.69676 | 30987 ft | 416 kts | 157° |
| 2026-04-22 11:24 | 32.59348 | 1.72660 | 30985 ft | 416 kts | 157° |
| 2026-04-22 11:24 | 32.54163 | 1.75622 | 30987 ft | 416 kts | 157° |
| 2026-04-22 11:25 | 32.48944 | 1.78601 | 30984 ft | 416 kts | 157° |
| 2026-04-22 11:25 | 32.43920 | 1.81464 | 30986 ft | 416 kts | 157° |
| 2026-04-22 11:26 | 32.38702 | 1.84434 | 30982 ft | 416 kts | 157° |
| 2026-04-22 11:26 | 32.33483 | 1.87400 | 30975 ft | 416 kts | 157° |
| 2026-04-22 11:27 | 32.28341 | 1.90320 | 30987 ft | 415 kts | 157° |
| 2026-04-22 11:27 | 32.23166 | 1.93253 | 30979 ft | 415 kts | 157° |
| 2026-04-22 11:28 | 32.17892 | 1.96023 | 30976 ft | 414 kts | 161° |
| 2026-04-22 11:28 | 32.12515 | 1.98458 | 30973 ft | 413 kts | 162° |
| 2026-04-22 11:29 | 32.07119 | 2.00802 | 30974 ft | 413 kts | 162° |
| 2026-04-22 11:29 | 32.01725 | 2.03141 | 30973 ft | 413 kts | 162° |
| 2026-04-22 11:30 | 31.96331 | 2.05493 | 30982 ft | 413 kts | 162° |
| 2026-04-22 11:30 | 31.90968 | 2.07836 | 30979 ft | 413 kts | 162° |
| 2026-04-22 11:31 | 31.85577 | 2.10189 | 30974 ft | 413 kts | 162° |
| 2026-04-22 11:31 | 31.80194 | 2.12536 | 30972 ft | 413 kts | 162° |
| 2026-04-22 11:32 | 31.74803 | 2.14883 | 30973 ft | 413 kts | 162° |
| 2026-04-22 11:32 | 31.69399 | 2.17232 | 30971 ft | 413 kts | 162° |
| 2026-04-22 11:33 | 31.63994 | 2.19579 | 30976 ft | 414 kts | 162° |
| 2026-04-22 11:33 | 31.58596 | 2.21920 | 30972 ft | 414 kts | 162° |
| 2026-04-22 11:34 | 31.53232 | 2.24244 | 30972 ft | 414 kts | 162° |
| 2026-04-22 11:34 | 31.47793 | 2.26597 | 30970 ft | 414 kts | 162° |
| 2026-04-22 11:35 | 31.42418 | 2.28919 | 30969 ft | 414 kts | 162° |
| 2026-04-22 11:35 | 31.37016 | 2.31250 | 30977 ft | 414 kts | 162° |
| 2026-04-22 11:36 | 31.31607 | 2.33582 | 30974 ft | 414 kts | 162° |
| 2026-04-22 11:36 | 31.26204 | 2.35908 | 30965 ft | 414 kts | 162° |
| 2026-04-22 11:37 | 31.20790 | 2.38236 | 30956 ft | 414 kts | 162° |
| 2026-04-22 11:37 | 31.15416 | 2.40544 | 30955 ft | 414 kts | 162° |
| 2026-04-22 11:38 | 31.10013 | 2.42861 | 30964 ft | 413 kts | 162° |
| 2026-04-22 11:38 | 31.01916 | 2.46328 | 30961 ft | 413 kts | 162° |
| 2026-04-22 11:39 | 30.96521 | 2.48635 | 30960 ft | 412 kts | 162° |
| 2026-04-22 11:39 | 30.91137 | 2.50935 | 30965 ft | 412 kts | 163° |
| 2026-04-22 11:40 | 30.85752 | 2.53232 | 30959 ft | 411 kts | 163° |
| 2026-04-22 11:40 | 30.80408 | 2.55509 | 30960 ft | 411 kts | 163° |
| 2026-04-22 11:41 | 30.75034 | 2.57796 | 30971 ft | 411 kts | 163° |
| 2026-04-22 11:41 | 30.69656 | 2.60082 | 30976 ft | 411 kts | 163° |
| 2026-04-22 11:42 | 30.64287 | 2.62362 | 30987 ft | 411 kts | 163° |
| 2026-04-22 11:42 | 30.58915 | 2.64640 | 30994 ft | 410 kts | 163° |
| 2026-04-22 11:43 | 30.53544 | 2.66915 | 30998 ft | 411 kts | 163° |
| 2026-04-22 11:43 | 30.48172 | 2.69188 | 31000 ft | 411 kts | 163° |
| 2026-04-22 11:44 | 30.42832 | 2.71444 | 30993 ft | 411 kts | 163° |
| 2026-04-22 11:44 | 30.37451 | 2.73715 | 30983 ft | 411 kts | 163° |
| 2026-04-22 11:45 | 30.32071 | 2.75983 | 30969 ft | 411 kts | 163° |
| 2026-04-22 11:45 | 30.26691 | 2.78249 | 30956 ft | 411 kts | 163° |
| 2026-04-22 11:46 | 30.21314 | 2.80510 | 30945 ft | 411 kts | 163° |
| 2026-04-22 11:46 | 30.15937 | 2.82770 | 30939 ft | 411 kts | 163° |
| 2026-04-22 11:47 | 30.10594 | 2.85012 | 30940 ft | 411 kts | 163° |
| 2026-04-22 11:47 | 30.05228 | 2.87261 | 30936 ft | 410 kts | 163° |
| 2026-04-22 11:48 | 29.99865 | 2.89506 | 30938 ft | 410 kts | 163° |
| 2026-04-22 11:48 | 29.94509 | 2.91746 | 30936 ft | 409 kts | 163° |
| 2026-04-22 11:49 | 29.89157 | 2.93981 | 30936 ft | 409 kts | 163° |
| 2026-04-22 11:49 | 29.83809 | 2.96212 | 30943 ft | 408 kts | 163° |
| 2026-04-22 11:50 | 29.78474 | 2.98436 | 30933 ft | 408 kts | 164° |
| 2026-04-22 11:50 | 29.73131 | 3.00660 | 30934 ft | 408 kts | 163° |
| 2026-04-22 11:51 | 29.67832 | 3.02863 | 30929 ft | 407 kts | 164° |
| 2026-04-22 11:51 | 29.62494 | 3.05080 | 30925 ft | 407 kts | 164° |
| 2026-04-22 11:52 | 29.57156 | 3.07294 | 30927 ft | 408 kts | 164° |
| 2026-04-22 11:52 | 29.51808 | 3.09510 | 30925 ft | 408 kts | 163° |
| 2026-04-22 11:53 | 29.46466 | 3.11720 | 30924 ft | 408 kts | 163° |
| 2026-04-22 11:53 | 29.41159 | 3.13914 | 30923 ft | 408 kts | 163° |
| 2026-04-22 11:54 | 29.35812 | 3.16122 | 30924 ft | 408 kts | 163° |
| 2026-04-22 11:54 | 29.31362 | 3.17958 | 30921 ft | 408 kts | 163° |
| 2026-04-22 11:55 | 29.25107 | 3.20536 | 30918 ft | 409 kts | 163° |
| 2026-04-22 11:55 | 29.20621 | 3.22383 | 30920 ft | 409 kts | 163° |
| 2026-04-22 11:56 | 29.15298 | 3.24571 | 30915 ft | 409 kts | 163° |
| 2026-04-22 11:56 | 29.09931 | 3.26776 | 30912 ft | 410 kts | 163° |
| 2026-04-22 11:57 | 29.04564 | 3.28979 | 30912 ft | 410 kts | 163° |
| 2026-04-22 11:57 | 28.99192 | 3.31180 | 30915 ft | 410 kts | 163° |
| 2026-04-22 11:58 | 28.93819 | 3.33381 | 30910 ft | 410 kts | 163° |
| 2026-04-22 11:58 | 28.88444 | 3.35579 | 30910 ft | 410 kts | 163° |
| 2026-04-22 11:59 | 28.83063 | 3.37777 | 30908 ft | 410 kts | 163° |
| 2026-04-22 11:59 | 28.77674 | 3.39975 | 30908 ft | 411 kts | 163° |
| 2026-04-22 12:00 | 28.72320 | 3.42158 | 30904 ft | 411 kts | 163° |
| 2026-04-22 12:00 | 28.66927 | 3.44354 | 30905 ft | 411 kts | 163° |
| 2026-04-22 12:01 | 28.61534 | 3.46548 | 30902 ft | 411 kts | 163° |
| 2026-04-22 12:01 | 28.56140 | 3.48739 | 30901 ft | 411 kts | 163° |
| 2026-04-22 12:02 | 28.50748 | 3.50926 | 30900 ft | 411 kts | 164° |
| 2026-04-22 12:02 | 28.45351 | 3.52952 | 30906 ft | 411 kts | 166° |
| 2026-04-22 12:03 | 28.39883 | 3.54883 | 30894 ft | 411 kts | 166° |
| 2026-04-22 12:03 | 28.34419 | 3.56807 | 30891 ft | 411 kts | 166° |
| 2026-04-22 12:04 | 28.28950 | 3.58746 | 30898 ft | 412 kts | 166° |
| 2026-04-22 12:04 | 28.23478 | 3.60694 | 30896 ft | 412 kts | 166° |
| 2026-04-22 12:05 | 28.17998 | 3.62645 | 30892 ft | 413 kts | 166° |
| 2026-04-22 12:05 | 28.12518 | 3.64594 | 30889 ft | 413 kts | 166° |
| 2026-04-22 12:06 | 28.07028 | 3.66543 | 30891 ft | 413 kts | 166° |
| 2026-04-22 12:06 | 28.01541 | 3.68489 | 30883 ft | 413 kts | 166° |
| 2026-04-22 12:07 | 27.96053 | 3.70434 | 30882 ft | 413 kts | 166° |
| 2026-04-22 12:07 | 27.90555 | 3.72379 | 30887 ft | 414 kts | 166° |
| 2026-04-22 12:08 | 27.85069 | 3.74319 | 30882 ft | 414 kts | 166° |
| 2026-04-22 12:08 | 27.79603 | 3.76249 | 30877 ft | 414 kts | 167° |
| 2026-04-22 12:09 | 27.74105 | 3.78189 | 30873 ft | 414 kts | 167° |
| 2026-04-22 12:09 | 27.68609 | 3.80126 | 30867 ft | 414 kts | 167° |
| 2026-04-22 12:10 | 27.63115 | 3.82060 | 30861 ft | 414 kts | 167° |
| 2026-04-22 12:10 | 27.57625 | 3.83991 | 30864 ft | 413 kts | 167° |
| 2026-04-22 12:11 | 27.52133 | 3.85921 | 30861 ft | 413 kts | 167° |
| 2026-04-22 12:11 | 27.46638 | 3.87849 | 30860 ft | 413 kts | 168° |
| 2026-04-22 12:12 | 27.41155 | 3.89772 | 30856 ft | 413 kts | 168° |
| 2026-04-22 12:12 | 27.35700 | 3.91682 | 30853 ft | 412 kts | 168° |
| 2026-04-22 12:13 | 27.30223 | 3.93598 | 30849 ft | 412 kts | 168° |
| 2026-04-22 12:13 | 27.24748 | 3.95511 | 30851 ft | 411 kts | 168° |
| 2026-04-22 12:14 | 27.19282 | 3.97419 | 30853 ft | 411 kts | 168° |
| 2026-04-22 12:14 | 27.13813 | 3.99327 | 30850 ft | 411 kts | 168° |
| 2026-04-22 12:15 | 27.08354 | 4.01228 | 30842 ft | 410 kts | 168° |
| 2026-04-22 12:15 | 27.02904 | 4.03125 | 30844 ft | 410 kts | 168° |
| 2026-04-22 12:16 | 26.97495 | 4.05006 | 30845 ft | 409 kts | 167° |
| 2026-04-22 12:16 | 26.92044 | 4.06899 | 30845 ft | 409 kts | 167° |
| 2026-04-22 12:17 | 26.86600 | 4.08787 | 30848 ft | 409 kts | 167° |
| 2026-04-22 12:17 | 26.81162 | 4.10672 | 30845 ft | 409 kts | 167° |
| 2026-04-22 12:18 | 26.75722 | 4.12556 | 30845 ft | 409 kts | 167° |
| 2026-04-22 12:18 | 26.70274 | 4.14440 | 30840 ft | 410 kts | 167° |
| 2026-04-22 12:19 | 26.64822 | 4.16324 | 30839 ft | 410 kts | 167° |
| 2026-04-22 12:19 | 26.59408 | 4.18193 | 30838 ft | 410 kts | 167° |
| 2026-04-22 12:20 | 26.53939 | 4.20079 | 30838 ft | 411 kts | 167° |
| 2026-04-22 12:20 | 26.48465 | 4.21965 | 30835 ft | 412 kts | 167° |
| 2026-04-22 12:21 | 26.42977 | 4.23854 | 30837 ft | 412 kts | 167° |
| 2026-04-22 12:21 | 26.37492 | 4.25740 | 30841 ft | 413 kts | 167° |
| 2026-04-22 12:22 | 26.31991 | 4.27630 | 30838 ft | 414 kts | 167° |
| 2026-04-22 12:22 | 26.26516 | 4.29509 | 30843 ft | 414 kts | 168° |
| 2026-04-22 12:23 | 26.20995 | 4.31402 | 30847 ft | 415 kts | 168° |
| 2026-04-22 12:23 | 26.15472 | 4.33294 | 30853 ft | 415 kts | 168° |
| 2026-04-22 12:24 | 26.09952 | 4.35183 | 30858 ft | 415 kts | 168° |
| 2026-04-22 12:24 | 26.04440 | 4.37067 | 30861 ft | 414 kts | 168° |
| 2026-04-22 12:25 | 25.98925 | 4.38951 | 30867 ft | 414 kts | 168° |
| 2026-04-22 12:25 | 25.93418 | 4.40830 | 30880 ft | 414 kts | 169° |
| 2026-04-22 12:26 | 25.87958 | 4.42691 | 30883 ft | 413 kts | 169° |
| 2026-04-22 12:26 | 25.82452 | 4.44565 | 30887 ft | 413 kts | 169° |
| 2026-04-22 12:27 | 25.76996 | 4.46420 | 30890 ft | 413 kts | 168° |
| 2026-04-22 12:27 | 25.71521 | 4.48281 | 30896 ft | 413 kts | 169° |
| 2026-04-22 12:28 | 25.66030 | 4.50145 | 30898 ft | 412 kts | 169° |
| 2026-04-22 12:28 | 25.60540 | 4.52007 | 30899 ft | 413 kts | 168° |
| 2026-04-22 12:29 | 25.55029 | 4.53874 | 30900 ft | 414 kts | 168° |
| 2026-04-22 12:29 | 25.49503 | 4.55744 | 30883 ft | 415 kts | 168° |
| 2026-04-22 12:30 | 25.41201 | 4.58551 | 30893 ft | 417 kts | 168° |
| 2026-04-22 12:31 | 25.35642 | 4.60427 | 30889 ft | 418 kts | 168° |
| 2026-04-22 12:31 | 25.30068 | 4.62308 | 30883 ft | 419 kts | 168° |
| 2026-04-22 12:32 | 25.24506 | 4.64183 | 30880 ft | 420 kts | 168° |
| 2026-04-22 12:32 | 25.16113 | 4.67010 | 30875 ft | 420 kts | 169° |
| 2026-04-22 12:33 | 25.10515 | 4.68892 | 30878 ft | 420 kts | 169° |
| 2026-04-22 12:33 | 25.04911 | 4.70774 | 30874 ft | 421 kts | 169° |
| 2026-04-22 12:34 | 24.99347 | 4.72642 | 30874 ft | 420 kts | 169° |
| 2026-04-22 12:34 | 24.93755 | 4.74518 | 30877 ft | 420 kts | 169° |
| 2026-04-22 12:35 | 24.88151 | 4.76395 | 30879 ft | 420 kts | 169° |
| 2026-04-22 12:35 | 24.82554 | 4.78268 | 30877 ft | 420 kts | 169° |
| 2026-04-22 12:36 | 24.76969 | 4.80135 | 30881 ft | 419 kts | 169° |
| 2026-04-22 12:36 | 24.71385 | 4.82000 | 30880 ft | 419 kts | 170° |
| 2026-04-22 12:37 | 24.65810 | 4.83861 | 30884 ft | 418 kts | 170° |
| 2026-04-22 12:37 | 24.60272 | 4.85707 | 30891 ft | 418 kts | 170° |
| 2026-04-22 12:38 | 24.54697 | 4.87564 | 30890 ft | 418 kts | 170° |
| 2026-04-22 12:38 | 24.49126 | 4.89417 | 30893 ft | 418 kts | 170° |
| 2026-04-22 12:39 | 24.41704 | 4.91884 | 30888 ft | 418 kts | 170° |
| 2026-04-22 12:40 | 24.36134 | 4.93734 | 30890 ft | 419 kts | 170° |
| 2026-04-22 12:40 | 24.30551 | 4.95586 | 30896 ft | 419 kts | 170° |
| 2026-04-22 12:41 | 24.24023 | 4.97749 | 30900 ft | 419 kts | 170° |
| 2026-04-22 12:41 | 24.19382 | 4.99286 | 30896 ft | 419 kts | 170° |
| 2026-04-22 12:42 | 24.13780 | 5.01139 | 30899 ft | 420 kts | 170° |
| 2026-04-22 12:42 | 24.08214 | 5.02978 | 30893 ft | 421 kts | 170° |
| 2026-04-22 12:43 | 24.02585 | 5.04837 | 30900 ft | 422 kts | 170° |
| 2026-04-22 12:43 | 23.96962 | 5.06692 | 30904 ft | 423 kts | 170° |
| 2026-04-22 12:44 | 23.91324 | 5.08552 | 30906 ft | 423 kts | 170° |
| 2026-04-22 12:44 | 23.85716 | 5.10399 | 30904 ft | 423 kts | 170° |
| 2026-04-22 12:45 | 23.80076 | 5.12254 | 30901 ft | 424 kts | 170° |
| 2026-04-22 12:45 | 23.74421 | 5.14114 | 30901 ft | 424 kts | 170° |
| 2026-04-22 12:46 | 23.68772 | 5.15969 | 30905 ft | 424 kts | 169° |
| 2026-04-22 12:46 | 23.63115 | 5.17826 | 30906 ft | 424 kts | 169° |
| 2026-04-22 12:47 | 23.57458 | 5.19680 | 30909 ft | 424 kts | 169° |
| 2026-04-22 12:47 | 23.51846 | 5.21518 | 30913 ft | 424 kts | 169° |
| 2026-04-22 12:48 | 23.46161 | 5.23379 | 30917 ft | 424 kts | 169° |
| 2026-04-22 12:48 | 23.40550 | 5.25213 | 30924 ft | 425 kts | 169° |
| 2026-04-22 12:49 | 23.34877 | 5.27067 | 30931 ft | 425 kts | 169° |
| 2026-04-22 12:49 | 23.29226 | 5.28912 | 30936 ft | 425 kts | 169° |
| 2026-04-22 12:50 | 23.23553 | 5.30761 | 30938 ft | 425 kts | 169° |
| 2026-04-22 12:50 | 23.17878 | 5.32609 | 30943 ft | 426 kts | 169° |
| 2026-04-22 12:51 | 23.12199 | 5.34458 | 30977 ft | 426 kts | 169° |
| 2026-04-22 12:51 | 23.06509 | 5.36308 | 31015 ft | 426 kts | 169° |
| 2026-04-22 12:52 | 23.00864 | 5.38143 | 31053 ft | 426 kts | 169° |
| 2026-04-22 12:52 | 22.95175 | 5.39990 | 31090 ft | 426 kts | 169° |
| 2026-04-22 12:53 | 22.89492 | 5.41833 | 31128 ft | 426 kts | 169° |
| 2026-04-22 12:53 | 22.83812 | 5.43675 | 31129 ft | 426 kts | 169° |
| 2026-04-22 12:54 | 22.78197 | 5.45800 | 31128 ft | 429 kts | 165° |
| 2026-04-22 12:54 | 22.72633 | 5.48187 | 31130 ft | 430 kts | 164° |
| 2026-04-22 12:55 | 22.67079 | 5.50623 | 31084 ft | 430 kts | 164° |
| 2026-04-22 12:55 | 22.61528 | 5.53058 | 31036 ft | 430 kts | 164° |
| 2026-04-22 12:56 | 22.56006 | 5.55470 | 30989 ft | 430 kts | 164° |
| 2026-04-22 12:56 | 22.50452 | 5.57890 | 30936 ft | 431 kts | 164° |
| 2026-04-22 12:57 | 22.44894 | 5.60308 | 30905 ft | 431 kts | 164° |
| 2026-04-22 12:57 | 22.39335 | 5.62725 | 30899 ft | 431 kts | 164° |
| 2026-04-22 12:58 | 22.33768 | 5.65143 | 30894 ft | 431 kts | 164° |
| 2026-04-22 12:58 | 22.28209 | 5.67556 | 30892 ft | 430 kts | 164° |
| 2026-04-22 12:59 | 22.22645 | 5.69970 | 30889 ft | 431 kts | 165° |
| 2026-04-22 12:59 | 22.17090 | 5.72377 | 30885 ft | 430 kts | 165° |
| 2026-04-22 13:00 | 22.11519 | 5.74789 | 30878 ft | 430 kts | 165° |
| 2026-04-22 13:00 | 22.05962 | 5.77193 | 30881 ft | 430 kts | 165° |
| 2026-04-22 13:01 | 22.00446 | 5.79577 | 30879 ft | 430 kts | 165° |
| 2026-04-22 13:01 | 21.94891 | 5.81976 | 30876 ft | 429 kts | 165° |
| 2026-04-22 13:02 | 21.89351 | 5.84366 | 30879 ft | 429 kts | 165° |
| 2026-04-22 13:02 | 21.83810 | 5.86755 | 30882 ft | 428 kts | 165° |
| 2026-04-22 13:03 | 21.78280 | 5.89137 | 30878 ft | 428 kts | 165° |
| 2026-04-22 13:03 | 21.72795 | 5.91498 | 30874 ft | 427 kts | 165° |
| 2026-04-22 13:04 | 21.67268 | 5.93875 | 30875 ft | 426 kts | 165° |
| 2026-04-22 13:04 | 21.61755 | 5.96243 | 30874 ft | 426 kts | 165° |
| 2026-04-22 13:05 | 21.56263 | 5.98603 | 30868 ft | 423 kts | 166° |
| 2026-04-22 13:05 | 21.50809 | 6.00941 | 30873 ft | 426 kts | 166° |
| 2026-04-22 13:06 | 21.45256 | 6.03319 | 30868 ft | 427 kts | 166° |
| 2026-04-22 13:06 | 21.39737 | 6.05683 | 30870 ft | 427 kts | 166° |
| 2026-04-22 13:07 | 21.34259 | 6.08029 | 30870 ft | 427 kts | 166° |
| 2026-04-22 13:07 | 21.28722 | 6.10396 | 30867 ft | 427 kts | 166° |
| 2026-04-22 13:08 | 21.23190 | 6.12759 | 30870 ft | 427 kts | 166° |
| 2026-04-22 13:08 | 21.17661 | 6.15120 | 30877 ft | 428 kts | 166° |
| 2026-04-22 13:09 | 21.12170 | 6.17462 | 30870 ft | 428 kts | 166° |
| 2026-04-22 13:09 | 21.06632 | 6.19823 | 30872 ft | 428 kts | 166° |
| 2026-04-22 13:10 | 21.01100 | 6.22178 | 30866 ft | 428 kts | 166° |
| 2026-04-22 13:10 | 20.95570 | 6.24532 | 30869 ft | 428 kts | 166° |
| 2026-04-22 13:11 | 20.90030 | 6.26887 | 30867 ft | 428 kts | 166° |
| 2026-04-22 13:11 | 20.84502 | 6.29236 | 30865 ft | 428 kts | 166° |
| 2026-04-22 13:12 | 20.78966 | 6.31586 | 30862 ft | 428 kts | 166° |
| 2026-04-22 13:12 | 20.73429 | 6.33935 | 30862 ft | 428 kts | 166° |
| 2026-04-22 13:13 | 20.67892 | 6.36281 | 30862 ft | 428 kts | 166° |
| 2026-04-22 13:13 | 20.62355 | 6.38626 | 30860 ft | 428 kts | 166° |
| 2026-04-22 13:14 | 20.56859 | 6.40952 | 30860 ft | 428 kts | 166° |
| 2026-04-22 13:14 | 20.51321 | 6.43294 | 30860 ft | 428 kts | 166° |
| 2026-04-22 13:15 | 20.45777 | 6.45636 | 30862 ft | 428 kts | 166° |
| 2026-04-22 13:15 | 20.40231 | 6.47977 | 30861 ft | 428 kts | 166° |
| 2026-04-22 13:16 | 20.34681 | 6.50319 | 30858 ft | 429 kts | 166° |
| 2026-04-22 13:16 | 20.29127 | 6.52660 | 30858 ft | 429 kts | 166° |
| 2026-04-22 13:17 | 20.23568 | 6.55002 | 30859 ft | 429 kts | 166° |
| 2026-04-22 13:17 | 20.18051 | 6.57324 | 30860 ft | 430 kts | 166° |
| 2026-04-22 13:18 | 20.12482 | 6.59666 | 30858 ft | 430 kts | 166° |
| 2026-04-22 13:18 | 20.06919 | 6.62084 | 30858 ft | 432 kts | 165° |
| 2026-04-22 13:19 | 20.01359 | 6.64562 | 30860 ft | 433 kts | 165° |
| 2026-04-22 13:19 | 19.95785 | 6.67048 | 30865 ft | 434 kts | 165° |
| 2026-04-22 13:20 | 19.90207 | 6.69524 | 30865 ft | 435 kts | 165° |
| 2026-04-22 13:20 | 19.84643 | 6.71987 | 30868 ft | 436 kts | 165° |
| 2026-04-22 13:21 | 19.79042 | 6.74464 | 30864 ft | 436 kts | 165° |
| 2026-04-22 13:21 | 19.73432 | 6.76943 | 30865 ft | 437 kts | 165° |
| 2026-04-22 13:22 | 19.67833 | 6.79415 | 30863 ft | 438 kts | 165° |
| 2026-04-22 13:22 | 19.62202 | 6.81900 | 30867 ft | 438 kts | 165° |
| 2026-04-22 13:23 | 19.56564 | 6.84386 | 30868 ft | 439 kts | 165° |
| 2026-04-22 13:23 | 19.50920 | 6.86873 | 30865 ft | 439 kts | 165° |
| 2026-04-22 13:24 | 19.45272 | 6.89359 | 30865 ft | 440 kts | 165° |
| 2026-04-22 13:24 | 19.39653 | 6.91831 | 30864 ft | 440 kts | 165° |
| 2026-04-22 13:25 | 19.33995 | 6.94319 | 30864 ft | 440 kts | 165° |
| 2026-04-22 13:25 | 19.29247 | 6.96404 | 30866 ft | 441 kts | 165° |
| 2026-04-22 13:26 | 19.23612 | 6.98878 | 30864 ft | 441 kts | 165° |
| 2026-04-22 13:26 | 19.17941 | 7.01366 | 30865 ft | 441 kts | 165° |
| 2026-04-22 13:27 | 19.12257 | 7.03857 | 30867 ft | 442 kts | 165° |
| 2026-04-22 13:27 | 19.06572 | 7.06347 | 30873 ft | 442 kts | 165° |
| 2026-04-22 13:28 | 19.00872 | 7.08842 | 30873 ft | 443 kts | 165° |
| 2026-04-22 13:28 | 18.95165 | 7.11338 | 30871 ft | 444 kts | 164° |
| 2026-04-22 13:29 | 18.89449 | 7.13835 | 30868 ft | 445 kts | 164° |
| 2026-04-22 13:29 | 18.83767 | 7.16316 | 30866 ft | 447 kts | 164° |
| 2026-04-22 13:30 | 18.78012 | 7.18827 | 30864 ft | 448 kts | 164° |
| 2026-04-22 13:30 | 18.72277 | 7.21328 | 30866 ft | 450 kts | 164° |
| 2026-04-22 13:31 | 18.66492 | 7.23849 | 30857 ft | 451 kts | 164° |
| 2026-04-22 13:31 | 18.60682 | 7.26379 | 30858 ft | 452 kts | 164° |
| 2026-04-22 13:32 | 18.54867 | 7.28910 | 30854 ft | 452 kts | 164° |
| 2026-04-22 13:32 | 18.49043 | 7.31442 | 30849 ft | 453 kts | 164° |
| 2026-04-22 13:33 | 18.43210 | 7.33976 | 30849 ft | 454 kts | 164° |
| 2026-04-22 13:33 | 18.37366 | 7.36513 | 30848 ft | 454 kts | 164° |
| 2026-04-22 13:34 | 18.31494 | 7.39060 | 30843 ft | 455 kts | 165° |
| 2026-04-22 13:34 | 18.25661 | 7.41589 | 30841 ft | 456 kts | 165° |
| 2026-04-22 13:35 | 18.19791 | 7.44132 | 30841 ft | 456 kts | 165° |
| 2026-04-22 13:35 | 18.13918 | 7.46675 | 30843 ft | 456 kts | 165° |
| 2026-04-22 13:36 | 18.08052 | 7.49212 | 30838 ft | 456 kts | 165° |
| 2026-04-22 13:36 | 18.02181 | 7.51750 | 30838 ft | 456 kts | 165° |
| 2026-04-22 13:37 | 17.96317 | 7.54283 | 30839 ft | 456 kts | 165° |
| 2026-04-22 13:37 | 17.90446 | 7.56817 | 30839 ft | 456 kts | 165° |
| 2026-04-22 13:38 | 17.84617 | 7.59331 | 30839 ft | 456 kts | 164° |
| 2026-04-22 13:38 | 17.75801 | 7.63129 | 30839 ft | 456 kts | 164° |
| 2026-04-22 13:39 | 17.69919 | 7.65662 | 30841 ft | 456 kts | 164° |
| 2026-04-22 13:39 | 17.64088 | 7.68171 | 30843 ft | 456 kts | 164° |
| 2026-04-22 13:40 | 17.58188 | 7.70708 | 30842 ft | 457 kts | 164° |
| 2026-04-22 13:40 | 17.52301 | 7.73237 | 30842 ft | 457 kts | 164° |
| 2026-04-22 13:41 | 17.46451 | 7.75748 | 30850 ft | 457 kts | 164° |
| 2026-04-22 13:41 | 17.40557 | 7.78276 | 30851 ft | 459 kts | 164° |
| 2026-04-22 13:42 | 17.34633 | 7.80815 | 30842 ft | 460 kts | 164° |
| 2026-04-22 13:42 | 17.28697 | 7.83358 | 30848 ft | 462 kts | 164° |
| 2026-04-22 13:43 | 17.22744 | 7.85906 | 30861 ft | 463 kts | 164° |
| 2026-04-22 13:43 | 17.16763 | 7.88465 | 30877 ft | 464 kts | 164° |
| 2026-04-22 13:44 | 17.10762 | 7.91031 | 30889 ft | 466 kts | 164° |
| 2026-04-22 13:44 | 17.04754 | 7.93598 | 30909 ft | 467 kts | 164° |
| 2026-04-22 13:45 | 16.98746 | 7.96163 | 30912 ft | 468 kts | 164° |
| 2026-04-22 13:45 | 16.92551 | 7.97823 | 30912 ft | 456 kts | 178° |
| 2026-04-22 13:46 | 16.86289 | 7.98718 | 30909 ft | 455 kts | 181° |
| 2026-04-22 13:46 | 16.79977 | 7.99467 | 30890 ft | 456 kts | 181° |
| 2026-04-22 13:47 | 16.73912 | 8.00174 | 30869 ft | 456 kts | 181° |
| 2026-04-22 13:47 | 16.67654 | 8.00829 | 30861 ft | 456 kts | 183° |
| 2026-04-22 13:48 | 16.61405 | 8.00708 | 30637 ft | 442 kts | 201° |
| 2026-04-22 13:48 | 16.58682 | 7.99581 | 29948 ft | 436 kts | 221° |
| 2026-04-22 13:48 | 16.56486 | 7.97363 | 28550 ft | 444 kts | 238° |
| 2026-04-22 13:49 | 16.54900 | 7.94767 | 28722 ft | 423 kts | 249° |
| 2026-04-22 13:49 | 16.53740 | 7.92120 | 30078 ft | 384 kts | 252° |
| 2026-04-22 13:49 | 16.52474 | 7.89740 | 30939 ft | 369 kts | 246° |
| 2026-04-22 13:49 | 16.51008 | 7.87549 | 31145 ft | 372 kts | 240° |
| 2026-04-22 13:50 | 16.49013 | 7.85647 | 30679 ft | 406 kts | 225° |
| 2026-04-22 13:50 | 16.46738 | 7.83978 | 30192 ft | 421 kts | 221° |
| 2026-04-22 13:50 | 16.44103 | 7.82317 | 29389 ft | 446 kts | 216° |
| 2026-04-22 13:50 | 16.41160 | 7.81106 | 29099 ft | 463 kts | 200° |
| 2026-04-22 13:51 | 16.37960 | 7.80672 | 29377 ft | 461 kts | 192° |
| 2026-04-22 13:51 | 16.34781 | 7.80506 | 29511 ft | 461 kts | 187° |
| 2026-04-22 13:51 | 16.29435 | 7.80819 | 29237 ft | 471 kts | 179° |
| 2026-04-22 13:52 | 16.22980 | 7.81555 | 28835 ft | 463 kts | 189° |
| 2026-04-22 13:52 | 16.21461 | 7.81277 | 27504 ft | 466 kts | 201° |
| 2026-04-22 13:52 | 16.21220 | 7.81211 | 27321 ft | 473 kts | 200° |